Terminal Aerodrome Forecast
Issued by NWS

Home | Current Version | Previous Version | Text Only | Print | Product List | Glossary On
Versions: 1 2 3 4 5 6 7 8 9 10 11 12 13 14 15 16 17
122
FTUS43 KOAX 272340
TAFCDR
TAF
KCDR 272340Z 2800/2824 23008KT P6SM SCT060 BKN100
     FM281800 31012G20KT P6SM VCSH SCT050 BKN070=

USA.gov is the U.S. government's official web portal to all federal, state and local government web resources and services.